sensor_id;sensor_type;location;lat;lon;timestamp;P1;durP1;ratioP1;P2;durP2;ratioP2
13228;SDS011;6680;53.220;10.402;2023-04-01T00:01:25;3.63;;;2.60;;
13228;SDS011;6680;53.220;10.402;2023-04-01T00:03:52;4.30;;;2.70;;
13228;SDS011;6680;53.220;10.402;2023-04-01T00:06:19;3.13;;;2.50;;
13228;SDS011;6680;53.220;10.402;2023-04-01T00:08:46;3.97;;;2.13;;
13228;SDS011;6680;53.220;10.402;2023-04-01T00:11:14;3.33;;;2.67;;
13228;SDS011;6680;53.220;10.402;2023-04-01T00:13:42;3.03;;;2.60;;
13228;SDS011;6680;53.220;10.402;2023-04-01T00:16:09;2.73;;;2.40;;
13228;SDS011;6680;53.220;10.402;2023-04-01T00:18:36;2.80;;;2.40;;
13228;SDS011;6680;53.220;10.402;2023-04-01T00:21:03;3.17;;;2.87;;
13228;SDS011;6680;53.220;10.402;2023-04-01T00:23:30;2.80;;;2.60;;
13228;SDS011;6680;53.220;10.402;2023-04-01T00:25:58;5.60;;;2.43;;
13228;SDS011;6680;53.220;10.402;2023-04-01T00:28:27;3.47;;;2.70;;
13228;SDS011;6680;53.220;10.402;2023-04-01T00:30:54;3.87;;;2.70;;
13228;SDS011;6680;53.220;10.402;2023-04-01T00:33:21;3.63;;;2.40;;
13228;SDS011;6680;53.220;10.402;2023-04-01T00:35:48;3.40;;;2.60;;
13228;SDS011;6680;53.220;10.402;2023-04-01T00:38:15;3.80;;;2.40;;
13228;SDS011;6680;53.220;10.402;2023-04-01T00:40:44;6.50;;;4.53;;
13228;SDS011;6680;53.220;10.402;2023-04-01T00:43:12;6.10;;;2.20;;
13228;SDS011;6680;53.220;10.402;2023-04-01T00:45:44;2.93;;;2.40;;
13228;SDS011;6680;53.220;10.402;2023-04-01T00:48:13;2.90;;;2.60;;
13228;SDS011;6680;53.220;10.402;2023-04-01T00:50:44;3.20;;;3.00;;
13228;SDS011;6680;53.220;10.402;2023-04-01T00:53:14;7.23;;;2.60;;
13228;SDS011;6680;53.220;10.402;2023-04-01T00:55:43;4.17;;;3.20;;
13228;SDS011;6680;53.220;10.402;2023-04-01T00:58:16;3.20;;;2.80;;
13228;SDS011;6680;53.220;10.402;2023-04-01T01:00:48;4.57;;;2.50;;
13228;SDS011;6680;53.220;10.402;2023-04-01T01:03:16;3.57;;;2.70;;
13228;SDS011;6680;53.220;10.402;2023-04-01T01:05:47;2.80;;;2.53;;
13228;SDS011;6680;53.220;10.402;2023-04-01T01:08:38;4.93;;;2.90;;
13228;SDS011;6680;53.220;10.402;2023-04-01T01:11:15;2.93;;;2.33;;
13228;SDS011;6680;53.220;10.402;2023-04-01T01:13:49;3.17;;;2.63;;
13228;SDS011;6680;53.220;10.402;2023-04-01T01:16:24;3.97;;;2.43;;
13228;SDS011;6680;53.220;10.402;2023-04-01T01:18:55;2.77;;;2.30;;
13228;SDS011;6680;53.220;10.402;2023-04-01T01:21:30;5.20;;;3.30;;
13228;SDS011;6680;53.220;10.402;2023-04-01T01:27:08;6.10;;;2.77;;
13228;SDS011;6680;53.220;10.402;2023-04-01T01:29:43;2.90;;;2.60;;
13228;SDS011;6680;53.220;10.402;2023-04-01T01:35:23;4.60;;;2.50;;
13228;SDS011;6680;53.220;10.402;2023-04-01T01:37:54;3.10;;;2.40;;
13228;SDS011;6680;53.220;10.402;2023-04-01T01:40:24;3.57;;;2.70;;
13228;SDS011;6680;53.220;10.402;2023-04-01T01:42:54;2.93;;;2.53;;
13228;SDS011;6680;53.220;10.402;2023-04-01T01:45:23;3.00;;;2.53;;
13228;SDS011;6680;53.220;10.402;2023-04-01T01:47:53;2.47;;;2.27;;
13228;SDS011;6680;53.220;10.402;2023-04-01T01:50:24;3.97;;;2.50;;
13228;SDS011;6680;53.220;10.402;2023-04-01T01:52:59;4.87;;;2.83;;
13228;SDS011;6680;53.220;10.402;2023-04-01T01:55:28;2.70;;;2.50;;
13228;SDS011;6680;53.220;10.402;2023-04-01T01:57:57;2.33;;;2.13;;
13228;SDS011;6680;53.220;10.402;2023-04-01T02:00:28;3.63;;;2.47;;
13228;SDS011;6680;53.220;10.402;2023-04-01T02:02:55;5.60;;;2.63;;
13228;SDS011;6680;53.220;10.402;2023-04-01T02:05:25;6.87;;;2.63;;
13228;SDS011;6680;53.220;10.402;2023-04-01T02:07:55;3.03;;;2.47;;
13228;SDS011;6680;53.220;10.402;2023-04-01T02:10:27;3.77;;;2.53;;
13228;SDS011;6680;53.220;10.402;2023-04-01T02:12:58;10.77;;;3.20;;
13228;SDS011;6680;53.220;10.402;2023-04-01T02:15:31;2.43;;;2.23;;
13228;SDS011;6680;53.220;10.402;2023-04-01T02:18:03;3.00;;;2.70;;
13228;SDS011;6680;53.220;10.402;2023-04-01T02:20:31;2.70;;;2.50;;
13228;SDS011;6680;53.220;10.402;2023-04-01T02:22:58;5.57;;;2.77;;
13228;SDS011;6680;53.220;10.402;2023-04-01T02:25:26;3.67;;;2.67;;
13228;SDS011;6680;53.220;10.402;2023-04-01T02:27:55;3.73;;;2.10;;
13228;SDS011;6680;53.220;10.402;2023-04-01T02:30:24;5.40;;;2.83;;
13228;SDS011;6680;53.220;10.402;2023-04-01T02:32:52;3.13;;;2.40;;
13228;SDS011;6680;53.220;10.402;2023-04-01T02:35:21;3.77;;;2.57;;
13228;SDS011;6680;53.220;10.402;2023-04-01T02:37:49;2.90;;;2.60;;
13228;SDS011;6680;53.220;10.402;2023-04-01T02:40:18;3.60;;;2.80;;
13228;SDS011;6680;53.220;10.402;2023-04-01T02:42:45;4.37;;;2.53;;
13228;SDS011;6680;53.220;10.402;2023-04-01T02:45:12;3.50;;;2.27;;
13228;SDS011;6680;53.220;10.402;2023-04-01T02:47:39;3.83;;;2.33;;
13228;SDS011;6680;53.220;10.402;2023-04-01T02:50:07;3.00;;;2.47;;
13228;SDS011;6680;53.220;10.402;2023-04-01T02:52:35;2.83;;;2.23;;
13228;SDS011;6680;53.220;10.402;2023-04-01T02:55:03;3.53;;;2.50;;
13228;SDS011;6680;53.220;10.402;2023-04-01T02:57:31;2.93;;;2.20;;
13228;SDS011;6680;53.220;10.402;2023-04-01T02:59:58;3.07;;;2.23;;
13228;SDS011;6680;53.220;10.402;2023-04-01T03:02:25;2.87;;;2.53;;
13228;SDS011;6680;53.220;10.402;2023-04-01T03:04:52;8.97;;;2.60;;
13228;SDS011;6680;53.220;10.402;2023-04-01T03:07:18;3.57;;;2.17;;
13228;SDS011;6680;53.220;10.402;2023-04-01T03:09:45;5.47;;;1.93;;
13228;SDS011;6680;53.220;10.402;2023-04-01T03:12:13;2.47;;;2.10;;
13228;SDS011;6680;53.220;10.402;2023-04-01T03:14:40;2.73;;;2.53;;
13228;SDS011;6680;53.220;10.402;2023-04-01T03:17:07;4.63;;;2.60;;
13228;SDS011;6680;53.220;10.402;2023-04-01T03:19:33;3.40;;;2.60;;
13228;SDS011;6680;53.220;10.402;2023-04-01T03:22:00;3.03;;;2.73;;
13228;SDS011;6680;53.220;10.402;2023-04-01T03:24:27;5.17;;;2.43;;
13228;SDS011;6680;53.220;10.402;2023-04-01T03:26:53;3.73;;;2.57;;
13228;SDS011;6680;53.220;10.402;2023-04-01T03:29:21;3.47;;;2.47;;
13228;SDS011;6680;53.220;10.402;2023-04-01T03:31:48;5.47;;;2.27;;
13228;SDS011;6680;53.220;10.402;2023-04-01T03:34:15;3.33;;;2.43;;
13228;SDS011;6680;53.220;10.402;2023-04-01T03:36:42;2.97;;;2.03;;
13228;SDS011;6680;53.220;10.402;2023-04-01T03:39:08;6.50;;;2.30;;
13228;SDS011;6680;53.220;10.402;2023-04-01T03:41:35;2.30;;;2.07;;
13228;SDS011;6680;53.220;10.402;2023-04-01T03:44:03;2.80;;;2.43;;
13228;SDS011;6680;53.220;10.402;2023-04-01T03:46:31;3.00;;;2.60;;
13228;SDS011;6680;53.220;10.402;2023-04-01T03:48:58;3.40;;;2.90;;
13228;SDS011;6680;53.220;10.402;2023-04-01T03:51:24;5.97;;;2.67;;
13228;SDS011;6680;53.220;10.402;2023-04-01T03:53:51;2.90;;;2.50;;
13228;SDS011;6680;53.220;10.402;2023-04-01T03:56:18;5.43;;;2.60;;
13228;SDS011;6680;53.220;10.402;2023-04-01T03:58:45;3.10;;;2.47;;
13228;SDS011;6680;53.220;10.402;2023-04-01T04:01:15;5.20;;;2.53;;
13228;SDS011;6680;53.220;10.402;2023-04-01T04:03:45;4.27;;;2.73;;
13228;SDS011;6680;53.220;10.402;2023-04-01T04:06:13;6.00;;;2.73;;
13228;SDS011;6680;53.220;10.402;2023-04-01T04:08:41;5.70;;;2.97;;
13228;SDS011;6680;53.220;10.402;2023-04-01T04:11:07;2.73;;;2.50;;
13228;SDS011;6680;53.220;10.402;2023-04-01T04:13:34;4.97;;;2.47;;
13228;SDS011;6680;53.220;10.402;2023-04-01T04:16:01;4.83;;;2.73;;
13228;SDS011;6680;53.220;10.402;2023-04-01T04:18:28;2.90;;;2.57;;
13228;SDS011;6680;53.220;10.402;2023-04-01T04:20:57;3.80;;;2.67;;
13228;SDS011;6680;53.220;10.402;2023-04-01T04:23:23;4.10;;;2.87;;
13228;SDS011;6680;53.220;10.402;2023-04-01T04:25:54;2.40;;;2.20;;
13228;SDS011;6680;53.220;10.402;2023-04-01T04:28:22;5.67;;;2.90;;
13228;SDS011;6680;53.220;10.402;2023-04-01T04:30:51;4.10;;;3.03;;
13228;SDS011;6680;53.220;10.402;2023-04-01T04:33:18;3.73;;;2.80;;
13228;SDS011;6680;53.220;10.402;2023-04-01T04:35:45;4.80;;;2.83;;
13228;SDS011;6680;53.220;10.402;2023-04-01T04:38:13;3.43;;;2.67;;
13228;SDS011;6680;53.220;10.402;2023-04-01T04:40:40;3.77;;;3.17;;
13228;SDS011;6680;53.220;10.402;2023-04-01T04:43:09;4.10;;;2.60;;
13228;SDS011;6680;53.220;10.402;2023-04-01T04:45:37;3.53;;;2.80;;
13228;SDS011;6680;53.220;10.402;2023-04-01T04:48:04;3.43;;;3.13;;
13228;SDS011;6680;53.220;10.402;2023-04-01T04:50:31;3.60;;;2.73;;
13228;SDS011;6680;53.220;10.402;2023-04-01T04:52:57;3.50;;;3.00;;
13228;SDS011;6680;53.220;10.402;2023-04-01T04:55:26;6.57;;;3.63;;
13228;SDS011;6680;53.220;10.402;2023-04-01T04:57:53;2.67;;;2.47;;
13228;SDS011;6680;53.220;10.402;2023-04-01T05:00:20;5.20;;;2.83;;
13228;SDS011;6680;53.220;10.402;2023-04-01T05:02:46;3.87;;;2.97;;
13228;SDS011;6680;53.220;10.402;2023-04-01T05:05:13;2.70;;;2.40;;
13228;SDS011;6680;53.220;10.402;2023-04-01T05:07:40;3.63;;;3.10;;
13228;SDS011;6680;53.220;10.402;2023-04-01T05:10:07;4.77;;;2.90;;
13228;SDS011;6680;53.220;10.402;2023-04-01T05:12:36;9.10;;;3.00;;
13228;SDS011;6680;53.220;10.402;2023-04-01T05:15:04;3.70;;;3.33;;
13228;SDS011;6680;53.220;10.402;2023-04-01T05:17:33;4.97;;;3.40;;
13228;SDS011;6680;53.220;10.402;2023-04-01T05:20:00;5.40;;;2.77;;
13228;SDS011;6680;53.220;10.402;2023-04-01T05:22:27;5.83;;;2.90;;
13228;SDS011;6680;53.220;10.402;2023-04-01T05:24:54;3.47;;;3.10;;
13228;SDS011;6680;53.220;10.402;2023-04-01T05:27:21;4.97;;;3.20;;
13228;SDS011;6680;53.220;10.402;2023-04-01T05:29:49;5.27;;;2.80;;
13228;SDS011;6680;53.220;10.402;2023-04-01T05:32:16;5.37;;;3.10;;
13228;SDS011;6680;53.220;10.402;2023-04-01T05:34:43;9.70;;;3.17;;
13228;SDS011;6680;53.220;10.402;2023-04-01T05:37:10;5.63;;;3.27;;
13228;SDS011;6680;53.220;10.402;2023-04-01T05:39:37;6.27;;;2.90;;
13228;SDS011;6680;53.220;10.402;2023-04-01T05:42:05;4.83;;;3.27;;
13228;SDS011;6680;53.220;10.402;2023-04-01T05:44:32;8.23;;;2.80;;
13228;SDS011;6680;53.220;10.402;2023-04-01T05:47:00;3.87;;;3.30;;
13228;SDS011;6680;53.220;10.402;2023-04-01T05:49:27;6.43;;;3.13;;
13228;SDS011;6680;53.220;10.402;2023-04-01T05:51:54;3.40;;;3.03;;
13228;SDS011;6680;53.220;10.402;2023-04-01T05:54:21;5.33;;;3.40;;
13228;SDS011;6680;53.220;10.402;2023-04-01T05:56:47;3.33;;;3.03;;
13228;SDS011;6680;53.220;10.402;2023-04-01T05:59:14;5.63;;;2.70;;
13228;SDS011;6680;53.220;10.402;2023-04-01T06:01:41;4.00;;;2.70;;
13228;SDS011;6680;53.220;10.402;2023-04-01T06:04:11;5.77;;;3.10;;
13228;SDS011;6680;53.220;10.402;2023-04-01T06:06:40;4.70;;;2.77;;
13228;SDS011;6680;53.220;10.402;2023-04-01T06:09:07;3.97;;;3.20;;
13228;SDS011;6680;53.220;10.402;2023-04-01T06:11:42;5.77;;;3.07;;
13228;SDS011;6680;53.220;10.402;2023-04-01T06:14:24;2.73;;;2.53;;
13228;SDS011;6680;53.220;10.402;2023-04-01T06:17:02;4.43;;;3.20;;
13228;SDS011;6680;53.220;10.402;2023-04-01T06:19:45;4.73;;;2.80;;
13228;SDS011;6680;53.220;10.402;2023-04-01T06:22:22;3.23;;;2.90;;
13228;SDS011;6680;53.220;10.402;2023-04-01T06:25:14;5.37;;;3.20;;
13228;SDS011;6680;53.220;10.402;2023-04-01T06:27:55;3.60;;;2.90;;
13228;SDS011;6680;53.220;10.402;2023-04-01T06:30:37;5.93;;;3.20;;
13228;SDS011;6680;53.220;10.402;2023-04-01T06:33:18;3.30;;;3.00;;
13228;SDS011;6680;53.220;10.402;2023-04-01T06:39:10;3.57;;;3.00;;
13228;SDS011;6680;53.220;10.402;2023-04-01T06:42:07;2.97;;;2.70;;
13228;SDS011;6680;53.220;10.402;2023-04-01T06:44:47;4.47;;;3.37;;
13228;SDS011;6680;53.220;10.402;2023-04-01T06:47:26;6.50;;;3.27;;
13228;SDS011;6680;53.220;10.402;2023-04-01T06:50:04;5.87;;;3.03;;
13228;SDS011;6680;53.220;10.402;2023-04-01T06:52:38;5.07;;;3.20;;
13228;SDS011;6680;53.220;10.402;2023-04-01T06:55:20;4.00;;;3.17;;
13228;SDS011;6680;53.220;10.402;2023-04-01T06:57:58;4.23;;;2.80;;
13228;SDS011;6680;53.220;10.402;2023-04-01T07:00:27;6.20;;;3.40;;
13228;SDS011;6680;53.220;10.402;2023-04-01T07:03:00;5.37;;;2.80;;
13228;SDS011;6680;53.220;10.402;2023-04-01T07:05:32;2.57;;;2.23;;
13228;SDS011;6680;53.220;10.402;2023-04-01T07:08:01;2.30;;;2.10;;
13228;SDS011;6680;53.220;10.402;2023-04-01T07:10:33;2.57;;;1.73;;
13228;SDS011;6680;53.220;10.402;2023-04-01T07:13:10;1.97;;;1.87;;
13228;SDS011;6680;53.220;10.402;2023-04-01T07:15:42;1.77;;;1.40;;
13228;SDS011;6680;53.220;10.402;2023-04-01T07:18:12;1.60;;;1.50;;
13228;SDS011;6680;53.220;10.402;2023-04-01T07:20:43;1.77;;;1.60;;
13228;SDS011;6680;53.220;10.402;2023-04-01T07:23:15;1.70;;;1.60;;
13228;SDS011;6680;53.220;10.402;2023-04-01T07:25:51;1.90;;;1.77;;
13228;SDS011;6680;53.220;10.402;2023-04-01T07:28:20;1.57;;;1.47;;
13228;SDS011;6680;53.220;10.402;2023-04-01T07:30:51;1.57;;;1.47;;
13228;SDS011;6680;53.220;10.402;2023-04-01T07:33:28;1.63;;;1.53;;
13228;SDS011;6680;53.220;10.402;2023-04-01T07:36:02;1.73;;;1.63;;
13228;SDS011;6680;53.220;10.402;2023-04-01T07:38:35;1.20;;;1.20;;
13228;SDS011;6680;53.220;10.402;2023-04-01T07:41:18;1.60;;;1.50;;
13228;SDS011;6680;53.220;10.402;2023-04-01T07:43:57;1.50;;;1.40;;
13228;SDS011;6680;53.220;10.402;2023-04-01T07:46:37;1.70;;;1.60;;
13228;SDS011;6680;53.220;10.402;2023-04-01T07:49:15;1.77;;;1.67;;
13228;SDS011;6680;53.220;10.402;2023-04-01T07:51:49;1.60;;;1.50;;
13228;SDS011;6680;53.220;10.402;2023-04-01T07:54:25;1.53;;;1.50;;
13228;SDS011;6680;53.220;10.402;2023-04-01T07:57:00;1.60;;;1.50;;
13228;SDS011;6680;53.220;10.402;2023-04-01T07:59:33;1.27;;;1.20;;
13228;SDS011;6680;53.220;10.402;2023-04-01T08:02:10;1.60;;;1.50;;
13228;SDS011;6680;53.220;10.402;2023-04-01T08:04:51;1.63;;;1.30;;
13228;SDS011;6680;53.220;10.402;2023-04-01T08:07:27;1.20;;;1.20;;
13228;SDS011;6680;53.220;10.402;2023-04-01T08:10:02;1.10;;;1.10;;
13228;SDS011;6680;53.220;10.402;2023-04-01T08:12:41;1.07;;;1.07;;
13228;SDS011;6680;53.220;10.402;2023-04-01T08:15:16;1.40;;;1.40;;
13228;SDS011;6680;53.220;10.402;2023-04-01T08:17:54;1.40;;;1.40;;
13228;SDS011;6680;53.220;10.402;2023-04-01T08:20:30;1.23;;;1.23;;
13228;SDS011;6680;53.220;10.402;2023-04-01T08:23:04;1.10;;;1.10;;
13228;SDS011;6680;53.220;10.402;2023-04-01T08:25:37;1.20;;;1.20;;
13228;SDS011;6680;53.220;10.402;2023-04-01T08:28:11;1.20;;;1.20;;
13228;SDS011;6680;53.220;10.402;2023-04-01T08:30:43;1.70;;;1.60;;
13228;SDS011;6680;53.220;10.402;2023-04-01T08:33:15;1.80;;;1.70;;
13228;SDS011;6680;53.220;10.402;2023-04-01T08:35:48;1.40;;;1.40;;
13228;SDS011;6680;53.220;10.402;2023-04-01T08:38:21;1.87;;;1.77;;
13228;SDS011;6680;53.220;10.402;2023-04-01T08:40:55;2.47;;;2.27;;
13228;SDS011;6680;53.220;10.402;2023-04-01T08:43:37;1.23;;;1.23;;
13228;SDS011;6680;53.220;10.402;2023-04-01T08:46:45;1.47;;;1.40;;
13228;SDS011;6680;53.220;10.402;2023-04-01T08:49:43;2.03;;;1.73;;
13228;SDS011;6680;53.220;10.402;2023-04-01T08:52:35;1.80;;;1.70;;
13228;SDS011;6680;53.220;10.402;2023-04-01T08:58:06;1.40;;;1.40;;
13228;SDS011;6680;53.220;10.402;2023-04-01T09:00:49;1.90;;;1.57;;
13228;SDS011;6680;53.220;10.402;2023-04-01T09:03:25;1.47;;;1.37;;
13228;SDS011;6680;53.220;10.402;2023-04-01T09:06:12;1.40;;;1.30;;
13228;SDS011;6680;53.220;10.402;2023-04-01T09:08:58;1.73;;;1.63;;
13228;SDS011;6680;53.220;10.402;2023-04-01T09:11:40;2.50;;;1.53;;
13228;SDS011;6680;53.220;10.402;2023-04-01T09:14:28;1.20;;;1.20;;
13228;SDS011;6680;53.220;10.402;2023-04-01T09:20:18;1.70;;;1.60;;
13228;SDS011;6680;53.220;10.402;2023-04-01T09:23:15;1.10;;;1.10;;
13228;SDS011;6680;53.220;10.402;2023-04-01T09:26:03;1.37;;;1.30;;
13228;SDS011;6680;53.220;10.402;2023-04-01T09:28:42;1.23;;;1.23;;
13228;SDS011;6680;53.220;10.402;2023-04-01T09:31:21;1.07;;;1.07;;
13228;SDS011;6680;53.220;10.402;2023-04-01T09:34:05;0.93;;;0.93;;
13228;SDS011;6680;53.220;10.402;2023-04-01T09:36:52;0.93;;;0.93;;
13228;SDS011;6680;53.220;10.402;2023-04-01T09:39:35;1.17;;;1.13;;
13228;SDS011;6680;53.220;10.402;2023-04-01T09:42:07;2.70;;;1.20;;
13228;SDS011;6680;53.220;10.402;2023-04-01T09:44:47;1.20;;;1.20;;
13228;SDS011;6680;53.220;10.402;2023-04-01T09:47:22;1.43;;;1.33;;
13228;SDS011;6680;53.220;10.402;2023-04-01T09:53:14;2.07;;;1.40;;
13228;SDS011;6680;53.220;10.402;2023-04-01T09:59:26;1.73;;;1.63;;
13228;SDS011;6680;53.220;10.402;2023-04-01T10:05:52;1.20;;;1.17;;
13228;SDS011;6680;53.220;10.402;2023-04-01T10:17:52;1.97;;;1.80;;
13228;SDS011;6680;53.220;10.402;2023-04-01T10:24:00;1.83;;;1.73;;
13228;SDS011;6680;53.220;10.402;2023-04-01T10:26:46;1.47;;;1.37;;
13228;SDS011;6680;53.220;10.402;2023-04-01T10:32:22;2.00;;;1.90;;
13228;SDS011;6680;53.220;10.402;2023-04-01T10:35:29;1.77;;;1.67;;
13228;SDS011;6680;53.220;10.402;2023-04-01T10:38:28;2.10;;;1.90;;
13228;SDS011;6680;53.220;10.402;2023-04-01T10:41:40;2.57;;;1.53;;
13228;SDS011;6680;53.220;10.402;2023-04-01T10:47:30;2.07;;;1.97;;
13228;SDS011;6680;53.220;10.402;2023-04-01T10:50:22;1.70;;;1.60;;
13228;SDS011;6680;53.220;10.402;2023-04-01T10:53:06;1.63;;;1.53;;
13228;SDS011;6680;53.220;10.402;2023-04-01T10:55:53;1.60;;;1.50;;
13228;SDS011;6680;53.220;10.402;2023-04-01T10:59:11;1.63;;;1.53;;
13228;SDS011;6680;53.220;10.402;2023-04-01T11:02:04;1.60;;;1.50;;
13228;SDS011;6680;53.220;10.402;2023-04-01T11:05:18;1.43;;;1.43;;
13228;SDS011;6680;53.220;10.402;2023-04-01T11:08:27;1.57;;;1.50;;
13228;SDS011;6680;53.220;10.402;2023-04-01T11:11:38;1.57;;;1.47;;
13228;SDS011;6680;53.220;10.402;2023-04-01T11:14:38;2.10;;;1.63;;
13228;SDS011;6680;53.220;10.402;2023-04-01T11:17:57;1.57;;;1.53;;
13228;SDS011;6680;53.220;10.402;2023-04-01T11:23:53;1.37;;;1.27;;
13228;SDS011;6680;53.220;10.402;2023-04-01T11:26:32;1.60;;;1.50;;
13228;SDS011;6680;53.220;10.402;2023-04-01T11:32:33;2.00;;;1.30;;
13228;SDS011;6680;53.220;10.402;2023-04-01T11:35:17;1.60;;;1.50;;
13228;SDS011;6680;53.220;10.402;2023-04-01T11:38:12;1.90;;;1.80;;
13228;SDS011;6680;53.220;10.402;2023-04-01T11:40:51;2.03;;;1.93;;
13228;SDS011;6680;53.220;10.402;2023-04-01T11:43:25;1.93;;;1.83;;
13228;SDS011;6680;53.220;10.402;2023-04-01T11:45:58;2.70;;;2.10;;
13228;SDS011;6680;53.220;10.402;2023-04-01T11:48:35;2.30;;;1.90;;
13228;SDS011;6680;53.220;10.402;2023-04-01T11:51:24;1.60;;;1.50;;
13228;SDS011;6680;53.220;10.402;2023-04-01T11:54:04;2.97;;;2.10;;
13228;SDS011;6680;53.220;10.402;2023-04-01T11:56:49;1.30;;;1.20;;
13228;SDS011;6680;53.220;10.402;2023-04-01T12:02:16;1.40;;;1.30;;
13228;SDS011;6680;53.220;10.402;2023-04-01T12:04:56;1.60;;;1.50;;
13228;SDS011;6680;53.220;10.402;2023-04-01T12:07:40;1.30;;;1.30;;
13228;SDS011;6680;53.220;10.402;2023-04-01T12:10:19;1.37;;;1.30;;
13228;SDS011;6680;53.220;10.402;2023-04-01T12:12:54;1.40;;;1.40;;
13228;SDS011;6680;53.220;10.402;2023-04-01T12:15:32;2.20;;;2.00;;
13228;SDS011;6680;53.220;10.402;2023-04-01T12:18:11;3.00;;;1.90;;
13228;SDS011;6680;53.220;10.402;2023-04-01T12:20:48;1.20;;;1.20;;
13228;SDS011;6680;53.220;10.402;2023-04-01T12:23:28;1.53;;;1.47;;
13228;SDS011;6680;53.220;10.402;2023-04-01T12:26:30;1.73;;;1.63;;
13228;SDS011;6680;53.220;10.402;2023-04-01T12:29:12;1.70;;;1.60;;
13228;SDS011;6680;53.220;10.402;2023-04-01T12:31:51;1.50;;;1.40;;
13228;SDS011;6680;53.220;10.402;2023-04-01T12:34:32;2.00;;;1.90;;
13228;SDS011;6680;53.220;10.402;2023-04-01T12:37:20;1.50;;;1.40;;
13228;SDS011;6680;53.220;10.402;2023-04-01T12:40:03;1.77;;;1.67;;
13228;SDS011;6680;53.220;10.402;2023-04-01T12:42:51;1.87;;;1.77;;
13228;SDS011;6680;53.220;10.402;2023-04-01T12:45:30;1.80;;;1.70;;
13228;SDS011;6680;53.220;10.402;2023-04-01T12:57:19;1.83;;;1.73;;
13228;SDS011;6680;53.220;10.402;2023-04-01T13:00:01;2.30;;;2.00;;
13228;SDS011;6680;53.220;10.402;2023-04-01T13:02:40;2.10;;;1.90;;
13228;SDS011;6680;53.220;10.402;2023-04-01T13:08:18;2.13;;;1.93;;
13228;SDS011;6680;53.220;10.402;2023-04-01T13:11:06;2.07;;;1.97;;
13228;SDS011;6680;53.220;10.402;2023-04-01T13:13:47;3.23;;;2.17;;
13228;SDS011;6680;53.220;10.402;2023-04-01T13:16:46;2.77;;;2.13;;
13228;SDS011;6680;53.220;10.402;2023-04-01T13:19:20;3.67;;;2.17;;
13228;SDS011;6680;53.220;10.402;2023-04-01T13:21:54;3.03;;;2.47;;
13228;SDS011;6680;53.220;10.402;2023-04-01T13:24:31;3.00;;;2.07;;
13228;SDS011;6680;53.220;10.402;2023-04-01T13:27:07;2.10;;;1.90;;
13228;SDS011;6680;53.220;10.402;2023-04-01T13:29:41;3.43;;;2.30;;
13228;SDS011;6680;53.220;10.402;2023-04-01T13:32:18;2.43;;;2.23;;
13228;SDS011;6680;53.220;10.402;2023-04-01T13:34:55;2.40;;;2.20;;
13228;SDS011;6680;53.220;10.402;2023-04-01T13:37:39;2.20;;;2.00;;
13228;SDS011;6680;53.220;10.402;2023-04-01T13:40:36;2.40;;;2.20;;
13228;SDS011;6680;53.220;10.402;2023-04-01T13:43:10;2.87;;;2.20;;
13228;SDS011;6680;53.220;10.402;2023-04-01T13:45:48;3.07;;;2.73;;
13228;SDS011;6680;53.220;10.402;2023-04-01T13:48:33;3.17;;;2.87;;
13228;SDS011;6680;53.220;10.402;2023-04-01T13:51:30;2.63;;;2.43;;
13228;SDS011;6680;53.220;10.402;2023-04-01T13:54:18;2.60;;;2.40;;
13228;SDS011;6680;53.220;10.402;2023-04-01T13:57:12;2.63;;;2.33;;
13228;SDS011;6680;53.220;10.402;2023-04-01T13:59:53;4.03;;;3.63;;
13228;SDS011;6680;53.220;10.402;2023-04-01T14:02:34;2.70;;;2.50;;
13228;SDS011;6680;53.220;10.402;2023-04-01T14:05:35;2.97;;;2.40;;
13228;SDS011;6680;53.220;10.402;2023-04-01T14:08:14;2.90;;;2.60;;
13228;SDS011;6680;53.220;10.402;2023-04-01T14:10:53;2.40;;;2.20;;
13228;SDS011;6680;53.220;10.402;2023-04-01T14:13:34;3.07;;;2.60;;
13228;SDS011;6680;53.220;10.402;2023-04-01T14:16:14;4.53;;;2.80;;
13228;SDS011;6680;53.220;10.402;2023-04-01T14:19:20;2.97;;;2.77;;
13228;SDS011;6680;53.220;10.402;2023-04-01T14:21:56;2.87;;;2.50;;
13228;SDS011;6680;53.220;10.402;2023-04-01T14:24:36;2.37;;;2.17;;
13228;SDS011;6680;53.220;10.402;2023-04-01T14:27:23;5.27;;;2.60;;
13228;SDS011;6680;53.220;10.402;2023-04-01T14:33:15;5.67;;;3.13;;
13228;SDS011;6680;53.220;10.402;2023-04-01T14:35:53;2.90;;;2.43;;
13228;SDS011;6680;53.220;10.402;2023-04-01T14:38:42;3.80;;;2.70;;
13228;SDS011;6680;53.220;10.402;2023-04-01T14:41:23;4.03;;;2.83;;
13228;SDS011;6680;53.220;10.402;2023-04-01T14:44:17;2.93;;;2.63;;
13228;SDS011;6680;53.220;10.402;2023-04-01T14:47:04;2.60;;;2.40;;
13228;SDS011;6680;53.220;10.402;2023-04-01T14:49:50;2.83;;;2.50;;
13228;SDS011;6680;53.220;10.402;2023-04-01T14:52:22;2.60;;;2.10;;
13228;SDS011;6680;53.220;10.402;2023-04-01T14:54:53;3.30;;;2.80;;
13228;SDS011;6680;53.220;10.402;2023-04-01T14:57:22;2.73;;;2.53;;
13228;SDS011;6680;53.220;10.402;2023-04-01T14:59:51;2.60;;;2.40;;
13228;SDS011;6680;53.220;10.402;2023-04-01T15:02:30;3.07;;;2.73;;
13228;SDS011;6680;53.220;10.402;2023-04-01T15:05:16;4.73;;;2.57;;
13228;SDS011;6680;53.220;10.402;2023-04-01T15:08:01;2.77;;;2.57;;
13228;SDS011;6680;53.220;10.402;2023-04-01T15:10:39;3.40;;;2.60;;
13228;SDS011;6680;53.220;10.402;2023-04-01T15:13:43;4.23;;;2.87;;
13228;SDS011;6680;53.220;10.402;2023-04-01T15:16:34;4.60;;;2.50;;
13228;SDS011;6680;53.220;10.402;2023-04-01T15:19:11;4.10;;;3.00;;
13228;SDS011;6680;53.220;10.402;2023-04-01T15:21:46;4.37;;;2.97;;
13228;SDS011;6680;53.220;10.402;2023-04-01T15:24:22;3.23;;;2.73;;
13228;SDS011;6680;53.220;10.402;2023-04-01T15:26:57;7.27;;;3.30;;
13228;SDS011;6680;53.220;10.402;2023-04-01T15:29:52;3.83;;;3.17;;
13228;SDS011;6680;53.220;10.402;2023-04-01T15:32:37;4.17;;;3.77;;
13228;SDS011;6680;53.220;10.402;2023-04-01T15:35:14;3.63;;;3.27;;
13228;SDS011;6680;53.220;10.402;2023-04-01T15:37:50;4.63;;;3.27;;
13228;SDS011;6680;53.220;10.402;2023-04-01T15:40:22;3.30;;;2.93;;
13228;SDS011;6680;53.220;10.402;2023-04-01T15:43:00;5.03;;;3.83;;
13228;SDS011;6680;53.220;10.402;2023-04-01T15:45:36;3.27;;;2.97;;
13228;SDS011;6680;53.220;10.402;2023-04-01T15:48:20;6.13;;;3.20;;
13228;SDS011;6680;53.220;10.402;2023-04-01T15:51:00;4.87;;;3.67;;
13228;SDS011;6680;53.220;10.402;2023-04-01T15:53:44;7.83;;;3.40;;
13228;SDS011;6680;53.220;10.402;2023-04-01T15:56:41;3.63;;;3.07;;
13228;SDS011;6680;53.220;10.402;2023-04-01T15:59:20;5.90;;;3.23;;
13228;SDS011;6680;53.220;10.402;2023-04-01T16:02:07;7.77;;;3.63;;
13228;SDS011;6680;53.220;10.402;2023-04-01T16:04:46;6.03;;;4.30;;
13228;SDS011;6680;53.220;10.402;2023-04-01T16:10:22;5.97;;;3.63;;
13228;SDS011;6680;53.220;10.402;2023-04-01T16:12:59;6.10;;;3.03;;
13228;SDS011;6680;53.220;10.402;2023-04-01T16:15:38;5.57;;;3.40;;
13228;SDS011;6680;53.220;10.402;2023-04-01T16:18:15;4.60;;;3.17;;
13228;SDS011;6680;53.220;10.402;2023-04-01T16:20:55;3.73;;;3.20;;
13228;SDS011;6680;53.220;10.402;2023-04-01T16:23:26;4.13;;;2.70;;
13228;SDS011;6680;53.220;10.402;2023-04-01T16:26:05;5.33;;;3.67;;
13228;SDS011;6680;53.220;10.402;2023-04-01T16:28:36;7.37;;;3.80;;
13228;SDS011;6680;53.220;10.402;2023-04-01T16:31:09;7.87;;;3.80;;
13228;SDS011;6680;53.220;10.402;2023-04-01T16:33:45;4.13;;;3.70;;
13228;SDS011;6680;53.220;10.402;2023-04-01T16:36:20;4.50;;;3.53;;
13228;SDS011;6680;53.220;10.402;2023-04-01T16:38:54;4.30;;;3.67;;
13228;SDS011;6680;53.220;10.402;2023-04-01T16:41:33;6.27;;;3.83;;
13228;SDS011;6680;53.220;10.402;2023-04-01T16:44:09;5.30;;;4.03;;
13228;SDS011;6680;53.220;10.402;2023-04-01T16:46:44;5.50;;;3.40;;
13228;SDS011;6680;53.220;10.402;2023-04-01T16:49:17;4.50;;;3.60;;
13228;SDS011;6680;53.220;10.402;2023-04-01T16:51:52;5.30;;;3.57;;
13228;SDS011;6680;53.220;10.402;2023-04-01T16:54:26;4.60;;;3.93;;